createdAt,value
2023-01-25T00:00:55.867Z,26.85
2023-01-25T00:01:55.912Z,27.25
2023-01-25T00:02:55.929Z,31.09
2023-01-25T00:03:55.890Z,26.41
2023-01-25T00:04:55.902Z,28.35
2023-01-25T00:05:55.902Z,28.93
2023-01-25T00:06:55.950Z,29.86
2023-01-25T00:07:55.910Z,29.52
2023-01-25T00:08:55.954Z,29.69
2023-01-25T00:09:55.933Z,29.84
2023-01-25T00:10:58.366Z,30.09
2023-01-25T00:11:56.112Z,29.80
2023-01-25T00:12:56.132Z,25.87
2023-01-25T00:13:56.147Z,31.23
2023-01-25T00:14:56.151Z,27.14
2023-01-25T00:15:56.183Z,29.73
2023-01-25T00:16:56.235Z,29.30
2023-01-25T00:17:56.903Z,26.62
2023-01-25T00:18:56.258Z,28.48
2023-01-25T00:19:56.203Z,29.22
2023-01-25T00:20:56.221Z,27.77
2023-01-25T00:21:56.216Z,25.29
2023-01-25T00:22:56.258Z,30.96
2023-01-25T00:23:56.425Z,29.66
2023-01-25T00:24:56.238Z,27.44
2023-01-25T00:25:57.777Z,31.10
2023-01-25T00:26:56.262Z,31.57
2023-01-25T00:27:56.259Z,29.20
2023-01-25T00:28:56.274Z,26.67
2023-01-25T00:29:56.329Z,29.60
2023-01-25T00:30:56.276Z,27.12
2023-01-25T00:31:56.343Z,29.50
2023-01-25T00:32:56.341Z,29.28
2023-01-25T00:33:56.287Z,29.54
2023-01-25T00:34:56.316Z,30.56
2023-01-25T00:35:56.303Z,28.21
2023-01-25T00:36:56.311Z,27.84
2023-01-25T00:37:56.321Z,28.77
2023-01-25T00:38:56.906Z,29.00
2023-01-25T00:39:56.331Z,30.43
2023-01-25T00:40:56.910Z,31.23
2023-01-25T00:41:56.346Z,29.00
2023-01-25T00:42:56.353Z,29.57
2023-01-25T00:43:56.362Z,28.25
2023-01-25T00:44:56.422Z,26.65
2023-01-25T00:45:56.416Z,28.66
2023-01-25T00:46:56.375Z,30.02
2023-01-25T00:47:57.430Z,26.81
2023-01-25T00:55:56.442Z,29.81
2023-01-25T00:56:56.565Z,31.04
2023-01-25T00:57:56.475Z,32.00
2023-01-25T00:58:56.453Z,27.13
2023-01-25T00:59:56.491Z,30.67
2023-01-25T01:00:56.495Z,31.15
2023-01-25T01:01:56.472Z,29.98
2023-01-25T01:02:56.480Z,30.05
2023-01-25T01:03:56.484Z,31.66
2023-01-25T01:04:56.541Z,29.19
2023-01-25T01:05:56.513Z,28.74
2023-01-25T01:06:56.544Z,27.97
2023-01-25T01:07:56.523Z,28.18
2023-01-25T01:08:56.537Z,28.20
2023-01-25T01:09:56.532Z,27.66
2023-01-25T01:10:56.568Z,26.76
2023-01-25T01:11:56.551Z,28.75
2023-01-25T01:12:56.559Z,28.89
2023-01-25T01:13:56.567Z,28.51
2023-01-25T01:14:56.601Z,31.66
2023-01-25T01:15:56.565Z,27.57
2023-01-25T01:16:58.052Z,28.70
2023-01-25T01:17:56.576Z,30.79
2023-01-25T01:18:56.582Z,27.96
2023-01-25T01:19:56.585Z,30.03
2023-01-25T01:20:56.632Z,28.98
2023-01-25T01:21:56.609Z,30.17
2023-01-25T01:22:56.617Z,28.67
2023-01-25T01:23:56.676Z,29.19
2023-01-25T01:24:56.657Z,27.88
2023-01-25T01:25:56.646Z,28.96
2023-01-25T01:26:56.736Z,30.60
2023-01-25T01:27:56.668Z,28.59
2023-01-25T01:28:56.662Z,28.87
2023-01-25T01:29:56.726Z,29.94
2023-01-25T01:30:56.681Z,27.82
2023-01-25T01:31:56.793Z,30.55
2023-01-25T01:32:56.738Z,26.13
2023-01-25T01:33:56.706Z,30.59
2023-01-25T01:34:56.704Z,29.72
2023-01-25T01:35:56.700Z,27.25
2023-01-25T01:36:56.715Z,27.50
2023-01-25T01:37:56.723Z,25.67
2023-01-25T01:38:56.727Z,31.07
2023-01-25T01:39:56.723Z,31.22
2023-01-25T01:40:56.735Z,28.85
2023-01-25T01:41:56.747Z,30.52
2023-01-25T01:42:56.749Z,30.16
2023-01-25T01:43:56.940Z,31.01
2023-01-25T01:44:56.746Z,29.71
2023-01-25T01:45:56.976Z,29.90
2023-01-25T01:46:56.756Z,29.32
2023-01-25T01:47:56.768Z,28.45
2023-01-25T01:48:56.776Z,28.99
2023-01-25T01:49:56.779Z,27.85
2023-01-25T01:50:56.784Z,28.69
2023-01-25T01:51:56.784Z,28.43
2023-01-25T01:52:56.790Z,29.47
2023-01-25T01:53:56.814Z,27.23
2023-01-25T01:54:56.894Z,29.59
2023-01-25T01:55:56.827Z,29.10
2023-01-25T01:56:56.817Z,28.92
2023-01-25T01:57:56.845Z,28.93
2023-01-25T01:58:56.851Z,27.68
2023-01-25T01:59:56.965Z,27.84
2023-01-25T02:00:56.855Z,30.72
2023-01-25T02:01:56.828Z,28.22
2023-01-25T02:02:56.905Z,29.13
2023-01-25T02:03:56.937Z,28.18
2023-01-25T02:04:56.851Z,28.60
2023-01-25T02:05:56.856Z,29.38
2023-01-25T02:06:56.873Z,28.17
2023-01-25T02:07:56.876Z,28.78
2023-01-25T02:08:56.904Z,29.61
2023-01-25T02:09:56.903Z,27.31
2023-01-25T02:10:56.908Z,27.49
2023-01-25T02:11:56.920Z,29.12
2023-01-25T02:12:56.934Z,28.22
2023-01-25T02:13:57.940Z,29.83
2023-01-25T02:14:56.963Z,28.95
2023-01-25T02:15:56.997Z,29.79
2023-01-25T02:16:56.995Z,31.48
2023-01-25T02:17:56.986Z,28.32
2023-01-25T02:18:56.986Z,27.84
2023-01-25T02:19:56.997Z,28.55
2023-01-25T02:20:57.955Z,29.44
2023-01-25T02:21:57.932Z,29.70
2023-01-25T02:22:57.948Z,27.20
2023-01-25T02:23:57.076Z,29.26
2023-01-25T02:24:57.015Z,26.59
2023-01-25T02:25:57.005Z,31.47
2023-01-25T02:26:57.014Z,30.35
2023-01-25T02:27:57.013Z,31.29
2023-01-25T02:28:57.009Z,28.55
2023-01-25T02:29:57.006Z,27.72
2023-01-25T02:30:57.116Z,31.00
2023-01-25T02:31:57.041Z,30.64
2023-01-25T02:32:56.990Z,30.37
2023-01-25T02:33:56.996Z,27.81
2023-01-25T02:34:56.997Z,30.27
2023-01-25T02:35:57.000Z,30.20
2023-01-25T02:36:57.029Z,29.57
2023-01-25T02:37:57.000Z,28.69
2023-01-25T02:38:56.995Z,30.58
2023-01-25T02:39:57.011Z,30.74
2023-01-25T02:40:56.994Z,28.01
2023-01-25T02:41:56.999Z,31.26
2023-01-25T02:42:56.981Z,30.49
2023-01-25T02:43:56.971Z,30.39
2023-01-25T02:44:56.992Z,30.12
2023-01-25T02:45:57.001Z,26.92
2023-01-25T02:46:57.018Z,29.59
2023-01-25T02:47:56.946Z,32.23
2023-01-25T02:48:56.938Z,32.38
2023-01-25T02:49:56.932Z,30.84
2023-01-25T02:50:56.933Z,29.51
2023-01-25T02:51:56.933Z,28.54
2023-01-25T02:52:56.907Z,27.97
2023-01-25T02:53:56.902Z,27.34
2023-01-25T02:54:56.898Z,27.53
2023-01-25T02:55:56.886Z,26.41
2023-01-25T02:56:56.916Z,31.16
2023-01-25T02:57:56.895Z,29.07
2023-01-25T02:58:56.857Z,27.81
2023-01-25T02:59:56.847Z,27.93
2023-01-25T03:00:56.826Z,26.01
2023-01-25T03:01:56.885Z,29.52
2023-01-25T03:02:56.866Z,28.33
2023-01-25T03:03:56.786Z,28.03
2023-01-25T03:04:56.879Z,29.18
2023-01-25T03:05:56.761Z,28.04
2023-01-25T03:06:56.753Z,29.01
2023-01-25T03:07:56.742Z,26.01
2023-01-25T03:08:56.723Z,26.98
2023-01-25T03:09:56.704Z,29.80
2023-01-25T03:10:56.965Z,31.30
2023-01-25T03:11:56.656Z,25.00
2023-01-25T03:12:56.725Z,28.31
2023-01-25T03:13:56.626Z,26.06
2023-01-25T03:14:56.612Z,26.76
2023-01-25T03:15:56.637Z,28.53
2023-01-25T03:16:56.574Z,33.67
2023-01-25T03:17:56.582Z,27.19
2023-01-25T03:18:56.562Z,30.40
2023-01-25T03:19:56.553Z,30.89
2023-01-25T03:20:56.966Z,29.27
2023-01-25T03:21:56.515Z,28.33
2023-01-25T03:22:56.515Z,30.50
2023-01-25T03:23:56.549Z,28.44
2023-01-25T03:24:56.486Z,28.44
2023-01-25T03:25:56.463Z,30.55
2023-01-25T03:26:56.445Z,31.03
2023-01-25T03:27:56.435Z,28.95
2023-01-25T03:28:56.420Z,28.14
2023-01-25T03:29:56.413Z,29.48
2023-01-25T03:30:56.436Z,31.95
2023-01-25T03:31:56.452Z,28.87
2023-01-25T03:32:56.368Z,29.59
2023-01-25T03:49:56.080Z,27.53
2023-01-25T03:50:56.069Z,26.05
2023-01-25T03:51:56.044Z,26.09
2023-01-25T03:52:56.027Z,27.45
2023-01-25T03:53:56.035Z,29.88
2023-01-25T03:54:56.009Z,27.36
2023-01-25T03:55:55.988Z,28.58
2023-01-25T03:56:55.981Z,27.44
2023-01-25T03:57:55.964Z,26.04
2023-01-25T03:58:55.923Z,27.20
2023-01-25T03:59:55.915Z,26.41
2023-01-25T04:00:55.949Z,27.54
2023-01-25T04:01:55.968Z,27.72
2023-01-25T04:02:55.848Z,28.76
2023-01-25T04:03:55.824Z,28.39
2023-01-25T04:04:55.805Z,30.07
2023-01-25T04:05:55.790Z,26.53
2023-01-25T04:06:55.785Z,27.80
2023-01-25T04:07:55.766Z,31.25
2023-01-25T04:08:55.737Z,29.00
2023-01-25T04:09:55.710Z,29.23
2023-01-25T04:10:55.690Z,26.98
2023-01-25T04:11:55.673Z,26.49
2023-01-25T04:12:55.654Z,29.71
2023-01-25T04:13:55.719Z,28.72
2023-01-25T04:14:55.615Z,26.77
2023-01-25T04:15:55.617Z,30.45
2023-01-25T04:16:55.669Z,29.03
2023-01-25T04:17:55.575Z,27.48
2023-01-25T04:18:55.544Z,30.44
2023-01-25T04:19:55.556Z,29.74
2023-01-25T04:20:55.519Z,25.64
2023-01-25T04:21:55.500Z,27.98
2023-01-25T04:22:55.465Z,29.86
2023-01-25T04:23:55.479Z,28.54
2023-01-25T04:24:55.441Z,27.61
2023-01-25T04:25:55.433Z,26.61
2023-01-25T04:26:55.421Z,27.31
2023-01-25T04:27:55.396Z,29.13
2023-01-25T04:28:55.443Z,27.97
2023-01-25T04:29:55.377Z,25.91
2023-01-25T04:30:55.353Z,28.02
2023-01-25T04:31:55.530Z,26.44
2023-01-25T04:32:55.330Z,28.53
2023-01-25T04:33:55.295Z,26.56
2023-01-25T04:34:55.292Z,26.17
2023-01-25T04:35:55.237Z,28.38
2023-01-25T04:36:55.223Z,28.08
2023-01-25T04:37:55.199Z,26.15
2023-01-25T04:38:55.174Z,29.88
2023-01-25T04:39:55.142Z,28.76
2023-01-25T04:40:55.124Z,28.95
2023-01-25T04:41:55.106Z,26.93
2023-01-25T04:42:55.072Z,26.77
2023-01-25T04:43:55.058Z,27.98
2023-01-25T04:44:55.037Z,26.89
2023-01-25T04:45:55.062Z,27.48
2023-01-25T04:46:54.995Z,29.63
2023-01-25T04:47:55.034Z,30.77
2023-01-25T04:48:54.938Z,27.61
2023-01-25T04:49:54.924Z,28.30
2023-01-25T04:50:54.915Z,26.88
2023-01-25T04:51:54.895Z,28.30
2023-01-25T05:28:55.000Z,27.77
2023-01-25T05:56:53.438Z,26.48
2023-01-25T05:57:53.421Z,26.61
2023-01-25T05:58:53.398Z,28.44
2023-01-25T05:59:53.380Z,27.57
2023-01-25T06:00:53.426Z,26.46
2023-01-25T06:01:53.327Z,27.77
2023-01-25T06:02:53.348Z,28.90
2023-01-25T06:03:53.323Z,29.25
2023-01-25T06:04:53.258Z,28.72
2023-01-25T06:05:53.253Z,29.66
2023-01-25T06:06:53.227Z,27.25
2023-01-25T06:07:53.187Z,27.81
2023-01-25T06:08:53.173Z,28.78
2023-01-25T06:09:54.015Z,29.12
2023-01-25T06:10:53.126Z,27.38
2023-01-25T06:11:53.108Z,29.08
2023-01-25T06:12:53.082Z,27.37
2023-01-25T06:13:53.051Z,27.37
2023-01-25T06:14:53.071Z,26.55
2023-01-25T06:15:53.021Z,27.28
2023-01-25T06:16:52.999Z,26.94
2023-01-25T06:17:52.957Z,25.92
2023-01-25T06:18:52.948Z,26.99
2023-01-25T06:19:52.922Z,27.17
2023-01-25T06:20:52.896Z,28.74
2023-01-25T06:21:52.887Z,30.33
2023-01-25T06:22:52.892Z,30.05
2023-01-25T06:23:52.910Z,26.91
2023-01-25T06:24:52.885Z,33.23
2023-01-25T06:25:52.805Z,27.35
2023-01-25T06:26:52.832Z,26.35
2023-01-25T06:27:52.742Z,29.71
2023-01-25T06:28:53.535Z,35.15
2023-01-25T06:29:52.723Z,36.11
2023-01-25T06:30:52.772Z,34.72
2023-01-25T06:31:52.807Z,40.00
2023-01-25T06:32:52.780Z,42.86
2023-01-25T06:33:52.821Z,46.73
2023-01-25T06:34:52.816Z,49.15
2023-01-25T06:35:52.823Z,47.96
2023-01-25T06:36:52.821Z,48.82
2023-01-25T06:37:52.801Z,52.83
2023-01-25T06:38:52.809Z,56.43
2023-01-25T06:39:52.784Z,56.58
2023-01-25T06:40:52.771Z,58.95
2023-01-25T06:41:52.754Z,61.17
2023-01-25T06:42:52.737Z,64.13
2023-01-25T06:43:52.712Z,66.15
2023-01-25T06:44:52.687Z,65.31
2023-01-25T06:45:52.669Z,69.72
2023-01-25T06:46:52.682Z,74.34
2023-01-25T06:47:52.612Z,78.73
2023-01-25T06:48:52.596Z,77.55
2023-01-25T06:49:52.542Z,92.49
2023-01-25T06:50:52.531Z,89.34
2023-01-25T06:51:52.474Z,89.21
2023-01-25T06:52:52.431Z,97.52
2023-01-25T06:53:52.401Z,93.40
2023-01-25T06:54:52.355Z,96.66
2023-01-25T06:55:52.314Z,96.26
2023-01-25T06:56:52.275Z,99.34
2023-01-25T06:57:52.228Z,101.10
2023-01-25T06:58:52.184Z,102.50
2023-01-25T06:59:52.156Z,106.90
2023-01-25T07:00:52.094Z,105.44
2023-01-25T07:01:52.224Z,108.80
2023-01-25T07:02:52.067Z,108.71
2023-01-25T07:03:51.999Z,105.86
2023-01-25T07:04:52.011Z,107.46
2023-01-25T07:05:51.891Z,117.30
2023-01-25T07:06:51.847Z,117.13
2023-01-25T07:07:52.541Z,116.59
2023-01-25T07:08:51.761Z,118.46
2023-01-25T07:09:51.705Z,121.00
2023-01-25T07:10:51.667Z,119.22
2023-01-25T07:11:51.620Z,125.77
2023-01-25T07:12:51.581Z,151.26
2023-01-25T07:13:51.524Z,141.19
2023-01-25T07:14:51.481Z,134.63
2023-01-25T07:15:51.427Z,136.34
2023-01-25T07:16:51.387Z,138.79
2023-01-25T07:17:52.035Z,146.25
2023-01-25T07:18:51.305Z,139.66
2023-01-25T07:19:51.225Z,142.18
2023-01-25T07:20:51.178Z,146.67
2023-01-25T07:21:51.154Z,148.34
2023-01-25T07:22:51.143Z,151.83
2023-01-25T07:23:51.215Z,142.29
2023-01-25T07:24:51.097Z,140.39
2023-01-25T07:25:53.534Z,145.60
2023-01-25T07:26:51.081Z,138.52
2023-01-25T07:27:51.016Z,141.76
2023-01-25T07:28:50.977Z,140.92
2023-01-25T07:29:50.923Z,141.83
2023-01-25T07:30:50.872Z,143.19
2023-01-25T07:31:50.883Z,145.20
2023-01-25T07:32:50.779Z,140.79
2023-01-25T07:33:50.742Z,142.93
2023-01-25T07:34:50.699Z,145.62
2023-01-25T07:35:51.600Z,142.86
2023-01-25T07:36:50.621Z,148.60
2023-01-25T07:37:50.575Z,148.56
2023-01-25T07:38:50.531Z,149.26
2023-01-25T07:39:50.575Z,145.36
2023-01-25T07:40:50.438Z,149.44
2023-01-25T07:41:50.403Z,146.78
2023-01-25T07:42:50.357Z,145.43
2023-01-25T07:43:51.040Z,150.86
2023-01-25T07:44:50.282Z,151.96
2023-01-25T07:45:50.237Z,150.56
2023-01-25T07:46:50.239Z,149.13
2023-01-25T07:47:50.148Z,146.64
2023-01-25T07:48:50.107Z,154.03
2023-01-25T07:49:50.075Z,154.84
2023-01-25T07:50:50.026Z,154.90
2023-01-25T07:51:49.998Z,160.39
2023-01-25T07:52:49.947Z,166.67
2023-01-25T07:53:49.933Z,165.22
2023-01-25T07:54:50.547Z,167.15
2023-01-25T07:55:49.822Z,169.85
2023-01-25T07:56:49.835Z,170.70
2023-01-25T07:57:49.864Z,176.94
2023-01-25T07:58:49.891Z,178.08
2023-01-25T07:59:49.888Z,179.83
2023-01-25T08:00:49.906Z,179.58
2023-01-25T08:01:49.930Z,181.99
2023-01-25T08:02:50.015Z,183.68
2023-01-25T08:03:49.968Z,181.13
2023-01-25T08:04:49.971Z,185.46
2023-01-25T08:05:50.037Z,182.70
2023-01-25T08:06:49.984Z,183.60
2023-01-25T08:07:50.028Z,189.03
2023-01-25T08:08:50.031Z,194.75
2023-01-25T08:09:50.037Z,191.27
2023-01-25T08:10:50.041Z,179.05
2023-01-25T08:11:50.068Z,180.73
2023-01-25T08:12:50.068Z,175.61
2023-01-25T08:13:50.193Z,174.53
2023-01-25T08:14:50.118Z,164.22
2023-01-25T09:21:47.694Z,135.58
2023-01-25T09:22:47.664Z,134.72
2023-01-25T09:23:57.418Z,135.77
2023-01-25T09:24:49.102Z,135.92
2023-01-25T09:25:48.080Z,134.82
2023-01-25T09:26:55.883Z,136.48
2023-01-25T09:30:00.921Z,132.28
2023-01-25T09:30:59.128Z,135.95
2023-01-25T09:31:48.343Z,136.22
2023-01-25T09:33:47.181Z,135.82
2023-01-25T09:34:48.082Z,132.96
2023-01-25T09:35:47.588Z,134.77
2023-01-25T09:36:47.062Z,130.01
2023-01-25T09:37:46.974Z,130.02
2023-01-25T10:46:46.227Z,91.32
2023-01-25T10:47:46.226Z,91.13
2023-01-25T10:48:46.087Z,91.21
2023-01-25T10:49:46.024Z,90.95
2023-01-25T10:50:46.005Z,90.79
2023-01-25T10:51:45.920Z,88.28
2023-01-25T10:52:45.868Z,89.94
2023-01-25T10:54:45.813Z,87.83
2023-01-25T10:55:45.799Z,87.23
2023-01-25T10:56:45.781Z,89.19
2023-01-25T10:57:45.741Z,86.14
2023-01-25T10:58:45.697Z,85.65
2023-01-25T10:59:45.667Z,87.40
2023-01-25T11:00:45.633Z,84.60
2023-01-25T11:01:45.660Z,86.34
2023-01-25T11:02:46.567Z,86.69
2023-01-25T11:03:45.553Z,86.10
2023-01-25T11:04:45.512Z,86.30
2023-01-25T11:05:45.460Z,85.84
2023-01-25T11:06:45.411Z,82.96
2023-01-25T11:07:46.124Z,86.20
2023-01-25T11:08:45.387Z,83.51
2023-01-25T11:09:45.302Z,82.67
2023-01-25T11:10:45.248Z,81.73
2023-01-25T11:11:45.194Z,83.09
2023-01-25T11:12:45.167Z,75.99
2023-01-25T11:13:45.100Z,82.68
2023-01-25T11:14:45.050Z,79.50
2023-01-25T11:15:45.027Z,84.08
2023-01-25T11:16:44.958Z,72.81
2023-01-25T11:17:44.904Z,76.99
2023-01-25T11:52:46.619Z,58.21
2023-01-25T13:01:38.747Z,42.03
2023-01-25T13:02:38.683Z,41.97
2023-01-25T13:03:38.567Z,35.81
2023-01-25T13:04:38.477Z,36.89
2023-01-25T13:05:38.413Z,35.86
2023-01-25T13:06:38.347Z,35.39
2023-01-25T13:07:38.276Z,34.10
2023-01-25T13:09:38.113Z,38.03
2023-01-25T13:10:38.076Z,37.40
2023-01-25T13:11:37.957Z,37.26
2023-01-25T13:12:37.884Z,36.42
2023-01-25T13:13:37.797Z,39.64
2023-01-25T13:14:37.700Z,36.87
2023-01-25T13:15:37.643Z,33.45
2023-01-25T13:16:37.674Z,32.09
2023-01-25T13:17:37.552Z,36.13
2023-01-25T13:18:37.390Z,32.49
2023-01-25T13:19:37.313Z,30.64
2023-01-25T13:20:37.249Z,32.31
2023-01-25T13:21:37.187Z,28.96
2023-01-25T13:22:37.116Z,30.66
2023-01-25T13:23:37.079Z,30.25
2023-01-25T13:24:37.054Z,29.15
2023-01-25T13:25:37.005Z,28.42
2023-01-25T13:26:36.995Z,31.34
2023-01-25T13:27:36.977Z,27.02
2023-01-25T13:28:36.954Z,26.40
2023-01-25T13:29:36.949Z,26.54
2023-01-25T13:30:36.999Z,26.28
2023-01-25T13:31:50.683Z,25.23
2023-01-25T13:32:37.824Z,25.40
2023-01-25T13:33:36.745Z,25.51
2023-01-25T13:34:36.674Z,26.46
2023-01-25T13:35:36.607Z,20.28
2023-01-25T13:36:36.492Z,23.80
2023-01-25T13:37:36.416Z,26.18
2023-01-25T13:38:36.319Z,28.63
2023-01-25T13:39:36.245Z,27.21
2023-01-25T13:40:36.152Z,27.84
2023-01-25T13:41:36.184Z,28.54
2023-01-25T13:42:36.122Z,26.01
2023-01-25T13:43:36.107Z,28.74
2023-01-25T13:44:36.077Z,26.37
2023-01-25T13:45:36.099Z,30.38
2023-01-25T13:46:36.107Z,26.64
2023-01-25T13:47:36.049Z,26.31
2023-01-25T13:48:38.196Z,28.92
2023-01-25T13:49:36.028Z,27.83
2023-01-25T13:50:36.041Z,33.87
2023-01-25T13:51:36.031Z,28.73
2023-01-25T13:52:35.993Z,32.40
2023-01-25T13:53:35.936Z,30.21
2023-01-25T13:54:35.914Z,28.52
2023-01-25T13:55:35.855Z,31.18
2023-01-25T13:56:35.793Z,30.68
2023-01-25T13:57:35.765Z,27.65
2023-01-25T13:58:35.687Z,26.14
2023-01-25T13:59:35.630Z,26.42
2023-01-25T14:00:35.583Z,29.08
2023-01-25T14:01:35.522Z,28.84
2023-01-25T14:02:35.448Z,27.50
2023-01-25T14:03:35.681Z,27.06
2023-01-25T14:04:35.314Z,26.10
2023-01-25T14:05:35.242Z,28.82
2023-01-25T14:06:35.180Z,26.45
2023-01-25T14:07:35.105Z,25.47
2023-01-25T14:08:35.046Z,30.04
2023-01-25T14:09:34.969Z,26.41
2023-01-25T14:10:34.934Z,27.58
2023-01-25T14:13:35.677Z,29.88
2023-01-25T14:24:35.173Z,25.00
2023-01-25T18:28:27.952Z,28.21
2023-01-25T18:29:27.938Z,29.41
2023-01-25T18:30:27.880Z,29.09
2023-01-25T18:31:27.938Z,29.16
2023-01-25T18:32:27.824Z,29.46
2023-01-25T18:33:27.882Z,28.88
2023-01-25T18:34:28.260Z,29.71
2023-01-25T18:35:27.727Z,29.17
2023-01-25T18:36:27.699Z,28.26
2023-01-25T18:37:27.663Z,26.04
2023-01-25T18:38:27.625Z,29.92
2023-01-25T18:39:27.710Z,28.72
2023-01-25T18:40:27.600Z,30.55
2023-01-25T18:41:27.567Z,28.55
2023-01-25T18:42:27.562Z,28.74
2023-01-25T18:43:27.491Z,29.35
2023-01-25T18:44:27.478Z,26.90
2023-01-25T18:45:27.448Z,27.86
2023-01-25T18:46:27.418Z,28.73
2023-01-25T18:47:27.377Z,27.80
2023-01-25T18:48:27.356Z,29.53
2023-01-25T18:49:27.339Z,27.01
2023-01-25T18:50:27.291Z,28.80
2023-01-25T18:51:27.266Z,28.88
2023-01-25T18:52:27.243Z,30.16
2023-01-25T18:53:27.231Z,30.84
2023-01-25T18:54:27.196Z,28.54
2023-01-25T18:55:27.153Z,31.34
2023-01-25T18:56:27.127Z,27.06
2023-01-25T18:57:27.110Z,29.84
2023-01-25T18:58:27.069Z,27.77
2023-01-25T18:59:27.183Z,30.39
2023-01-25T19:00:27.022Z,29.59
2023-01-25T19:01:27.004Z,28.44
2023-01-25T19:02:27.065Z,28.88
2023-01-25T19:03:26.952Z,30.37
2023-01-25T19:04:26.922Z,27.94
2023-01-25T19:05:26.906Z,27.49
2023-01-25T19:06:26.874Z,30.27
2023-01-25T19:07:26.861Z,28.17
2023-01-25T19:08:26.834Z,26.55
2023-01-25T19:09:26.884Z,29.62
2023-01-25T19:10:26.779Z,28.78
2023-01-25T19:11:26.752Z,27.94
2023-01-25T19:12:26.736Z,28.10
2023-01-25T19:13:26.722Z,29.87
2023-01-25T19:14:26.677Z,29.07
2023-01-25T19:15:26.718Z,28.19
2023-01-25T19:16:26.684Z,28.33
2023-01-25T19:17:26.635Z,27.28
2023-01-25T19:18:26.603Z,27.28
2023-01-25T19:19:26.573Z,27.26
2023-01-25T19:20:26.562Z,25.89
2023-01-25T19:21:26.622Z,25.00
2023-01-25T19:22:26.535Z,27.76
2023-01-25T19:23:26.500Z,28.38
2023-01-25T19:24:26.525Z,29.50
2023-01-25T19:25:26.472Z,29.82
2023-01-25T19:26:27.292Z,30.82
2023-01-25T19:27:26.417Z,28.70
2023-01-25T19:28:26.420Z,29.08
2023-01-25T19:29:26.398Z,29.20
2023-01-25T19:30:26.407Z,28.84
2023-01-25T19:31:26.437Z,29.00
2023-01-25T19:32:26.342Z,30.00
2023-01-25T19:33:26.321Z,29.21
2023-01-25T19:34:26.316Z,29.33
2023-01-25T19:35:26.300Z,29.44
2023-01-25T19:36:26.282Z,31.40
2023-01-25T19:37:26.256Z,28.00
2023-01-25T19:38:26.269Z,30.16
2023-01-25T19:39:26.269Z,27.69
2023-01-25T19:40:26.235Z,28.39
2023-01-25T19:41:26.215Z,28.87
2023-01-25T19:42:26.202Z,30.32
2023-01-25T19:43:26.193Z,29.61
2023-01-25T19:44:26.174Z,28.75
2023-01-25T19:45:26.173Z,32.03
2023-01-25T19:46:26.159Z,28.03
2023-01-25T19:47:26.217Z,26.61
2023-01-25T19:48:26.136Z,29.34
2023-01-25T19:49:26.136Z,28.77
2023-01-25T19:50:26.096Z,28.82
2023-01-25T19:51:26.115Z,29.65
2023-01-25T19:52:26.088Z,27.88
2023-01-25T19:53:26.215Z,28.49
2023-01-25T19:54:26.077Z,28.04
2023-01-25T19:55:26.106Z,32.36
2023-01-25T19:56:26.038Z,30.26
2023-01-25T19:57:26.037Z,28.30
2023-01-25T19:58:26.027Z,30.94
2023-01-25T19:59:26.050Z,30.27
2023-01-25T20:00:26.040Z,27.01
2023-01-25T20:01:28.274Z,27.77
2023-01-25T20:02:25.965Z,31.54
2023-01-25T20:03:25.993Z,28.41
2023-01-25T20:04:25.914Z,26.91
2023-01-25T20:05:25.859Z,29.43
2023-01-25T20:06:25.812Z,27.21
2023-01-25T20:07:25.768Z,27.86
2023-01-25T20:08:25.734Z,25.16
2023-01-25T20:09:25.680Z,27.43
2023-01-25T20:10:25.642Z,28.40
2023-01-25T20:11:25.589Z,27.58
2023-01-25T20:12:25.587Z,29.63
2023-01-25T20:13:25.507Z,29.63
2023-01-25T20:14:26.302Z,26.02
2023-01-25T20:15:25.440Z,28.40
2023-01-25T20:16:25.418Z,29.13
2023-01-25T20:17:25.365Z,30.61
2023-01-25T20:18:25.315Z,26.88
2023-01-25T20:19:25.277Z,27.57
2023-01-25T20:20:25.235Z,28.38
2023-01-25T20:21:25.197Z,25.19
2023-01-25T20:22:25.153Z,29.13
2023-01-25T20:23:25.114Z,26.57
2023-01-25T20:24:25.137Z,27.23
2023-01-25T20:25:25.047Z,28.12
2023-01-25T20:26:24.994Z,27.58
2023-01-25T20:27:24.971Z,29.30
2023-01-25T20:28:24.919Z,26.89
2023-01-25T20:29:24.887Z,27.42
2023-01-25T20:58:23.781Z,30.46
2023-01-25T20:59:23.756Z,27.95
2023-01-25T21:01:23.735Z,28.07
2023-01-25T21:02:23.760Z,26.38
2023-01-25T21:03:23.729Z,25.00
2023-01-25T21:04:23.720Z,30.02
2023-01-25T21:05:23.721Z,29.73
2023-01-25T21:06:23.728Z,29.37
2023-01-25T21:07:23.715Z,30.33
2023-01-25T21:08:23.708Z,26.03
2023-01-25T21:09:23.715Z,30.90
2023-01-25T21:10:23.709Z,28.40
2023-01-25T21:11:23.720Z,29.93
2023-01-25T21:12:23.730Z,29.41
2023-01-25T21:13:23.721Z,27.98
2023-01-25T21:14:23.727Z,29.65
2023-01-25T21:15:25.642Z,31.72
2023-01-25T21:16:23.815Z,28.79
2023-01-25T21:17:23.746Z,27.91
2023-01-25T21:18:23.721Z,30.90
2023-01-25T21:19:23.740Z,27.76
2023-01-25T21:20:23.739Z,25.00
2023-01-25T21:21:23.719Z,29.74
2023-01-25T21:22:23.802Z,28.53
2023-01-25T21:23:23.732Z,30.55
2023-01-25T21:24:23.763Z,29.54
2023-01-25T21:25:23.833Z,29.43
2023-01-25T21:26:23.758Z,28.33
2023-01-25T21:27:23.763Z,27.65
2023-01-25T21:28:23.762Z,27.99
2023-01-25T21:29:23.770Z,26.57
2023-01-25T21:30:23.789Z,29.49
2023-01-25T21:31:23.835Z,28.36
2023-01-25T21:32:23.831Z,29.26
2023-01-25T21:33:23.795Z,29.51
2023-01-25T21:34:23.791Z,26.75
2023-01-25T21:35:23.810Z,28.71
2023-01-25T21:36:23.811Z,26.37
2023-01-25T21:37:23.816Z,30.17
2023-01-25T21:38:23.815Z,27.28
2023-01-25T21:39:23.832Z,29.34
2023-01-25T21:40:23.827Z,29.73
2023-01-25T21:41:23.859Z,29.41
2023-01-25T21:42:23.867Z,27.42
2023-01-25T21:43:23.865Z,30.89
2023-01-25T21:44:23.876Z,26.31
2023-01-25T21:45:23.889Z,27.39
2023-01-25T21:46:23.883Z,29.38
2023-01-25T21:48:23.896Z,27.45
2023-01-25T22:35:25.336Z,30.11
2023-01-25T22:38:25.334Z,28.57
2023-01-25T22:44:25.341Z,29.15
2023-01-25T22:45:25.341Z,28.06
2023-01-25T23:11:24.899Z,30.68
2023-01-25T23:12:24.909Z,27.69
2023-01-25T23:13:24.939Z,31.11
2023-01-25T23:14:24.950Z,32.64
2023-01-25T23:15:25.029Z,31.80
2023-01-25T23:16:24.988Z,29.40
2023-01-25T23:17:25.013Z,29.80
2023-01-25T23:18:25.035Z,29.97
2023-01-25T23:19:25.065Z,28.98
2023-01-25T23:22:25.133Z,30.20
2023-01-25T23:23:25.136Z,32.56
2023-01-25T23:24:25.186Z,29.19
2023-01-25T23:25:25.235Z,29.38
2023-01-25T23:26:25.193Z,28.87
2023-01-25T23:27:25.208Z,29.69
2023-01-25T23:28:25.285Z,27.15
2023-01-25T23:29:25.235Z,29.81
2023-01-25T23:30:25.333Z,28.49
2023-01-25T23:31:25.423Z,31.66
2023-01-25T23:32:25.318Z,26.87
2023-01-25T23:33:25.318Z,29.87
2023-01-25T23:34:25.348Z,29.59
2023-01-25T23:35:25.356Z,29.27
2023-01-25T23:36:25.396Z,28.70
2023-01-25T23:37:25.409Z,27.43
2023-01-25T23:38:25.487Z,28.24
2023-01-25T23:39:25.444Z,28.53
2023-01-25T23:40:25.467Z,28.02
2023-01-25T23:41:25.482Z,28.13
2023-01-25T23:42:25.513Z,27.09
2023-01-25T23:43:25.563Z,29.52
2023-01-25T23:44:25.560Z,28.65
2023-01-25T23:45:25.578Z,29.08
2023-01-25T23:46:25.709Z,29.94
2023-01-25T23:47:25.633Z,27.10
2023-01-25T23:48:25.640Z,31.72
2023-01-25T23:49:25.661Z,31.28
2023-01-25T23:50:25.684Z,28.25
2023-01-25T23:51:25.708Z,31.20
2023-01-25T23:52:25.738Z,28.42
2023-01-25T23:53:25.759Z,27.23
2023-01-25T23:54:25.775Z,29.28
2023-01-25T23:55:25.796Z,28.38
